Portada
METAR-TAF:

METAR-TAF

Aeroports :

Kochi, Índia

latitud: 10-09-07N, longitud: 76-24-07E, altitud: 9 m

Observació

L'informe es va fer fa 7 minuts, a les 22:00 UTC
Vent 6 kt del Est/Nord-Est
Temperatura 25°C
Humitat 83%
Pressió 1011 hPa
Visibilitat: 3500 m
Núvols disperses a una alçada de 2000 ft
boirina

METAR: VOCI 172200Z 07006KT 3500 BR SCT020 25/22 Q1011 NOSIG

Hora: 03:37 (22:07 UTC)

Pronòstic

L'informe es va fer fa 2 hores i 7 minuts, a les 20:00 UTC
Pronòstic vàlid del 17 a les 21 UTC al 18 a les 06 UTC
Vent 3 kt amb direcció variable
Visibilitat: 4000 m
Escasses núvols a una alçada de 1500 ft
calitja
Evolucionant progressivament
l' 17 a les 23 UTC al 18 a les 01 UTC
Vent 5 kt del Est/Nord-Est
Visibilitat: 2000 m
Escasses núvols a una alçada de 1500 ft
boirina
Evolucionant progressivament
l' 18 a les 04 UTC al 18 a les 06 UTC
Vent 10 kt del Oest
Visibilitat: 6000 m

TAF: VOCI 172000Z 1721/1806 VRB03KT 4000 HZ FEW015 BECMG 1723/1801 07005KT 2000 BR FEW015 BECMG 1804/1806 27010KT 6000

Observacions i pronòstics meteorològics de més de 4000 aeroports (METAR i TAF).

Les estacions disponibles són els punts grocs i vermells al mapa.

Posi el ratolí al punt desitjat per veure el nom de l'estació.

Feu clic per veure les observacions i els pronòstics meteorològics.

Per canviar el mapa: feu clic els botons verds amb una creu de color negre per apropar; al botó verd amb un guió per allunyar la imatge; o en les fletxes verdes per a mapes adjacents.


METAR-TAF: